sensor_id;sensor_type;location;lat;lon;timestamp;P1;durP1;ratioP1;P2;durP2;ratioP2
11328;SDS011;5719;42.714;23.732;2023-08-08T00:00:47;4.97;;;1.40;;
11328;SDS011;5719;42.714;23.732;2023-08-08T00:03:16;1.67;;;1.27;;
11328;SDS011;5719;42.714;23.732;2023-08-08T00:05:43;2.33;;;1.30;;
11328;SDS011;5719;42.714;23.732;2023-08-08T00:08:09;2.00;;;1.10;;
11328;SDS011;5719;42.714;23.732;2023-08-08T00:10:36;2.78;;;1.10;;
11328;SDS011;5719;42.714;23.732;2023-08-08T00:13:03;2.58;;;1.13;;
11328;SDS011;5719;42.714;23.732;2023-08-08T00:15:30;2.90;;;1.30;;
11328;SDS011;5719;42.714;23.732;2023-08-08T00:17:57;1.33;;;1.20;;
11328;SDS011;5719;42.714;23.732;2023-08-08T00:20:26;2.58;;;1.40;;
11328;SDS011;5719;42.714;23.732;2023-08-08T00:22:52;5.22;;;1.30;;
11328;SDS011;5719;42.714;23.732;2023-08-08T00:25:19;1.10;;;1.00;;
11328;SDS011;5719;42.714;23.732;2023-08-08T00:27:46;4.43;;;1.17;;
11328;SDS011;5719;42.714;23.732;2023-08-08T00:30:13;1.30;;;1.20;;
11328;SDS011;5719;42.714;23.732;2023-08-08T00:32:40;2.08;;;1.17;;
11328;SDS011;5719;42.714;23.732;2023-08-08T00:35:08;1.60;;;1.10;;
11328;SDS011;5719;42.714;23.732;2023-08-08T00:37:36;3.67;;;1.10;;
11328;SDS011;5719;42.714;23.732;2023-08-08T00:40:04;1.55;;;1.40;;
11328;SDS011;5719;42.714;23.732;2023-08-08T00:42:31;4.72;;;1.60;;
11328;SDS011;5719;42.714;23.732;2023-08-08T00:44:58;6.57;;;1.30;;
11328;SDS011;5719;42.714;23.732;2023-08-08T00:47:28;1.48;;;1.38;;
11328;SDS011;5719;42.714;23.732;2023-08-08T00:49:56;4.13;;;1.40;;
11328;SDS011;5719;42.714;23.732;2023-08-08T00:52:23;1.55;;;1.45;;
11328;SDS011;5719;42.714;23.732;2023-08-08T00:54:52;3.22;;;1.42;;
11328;SDS011;5719;42.714;23.732;2023-08-08T00:57:20;3.30;;;1.58;;
11328;SDS011;5719;42.714;23.732;2023-08-08T00:59:47;2.92;;;1.30;;
11328;SDS011;5719;42.714;23.732;2023-08-08T01:02:13;2.63;;;1.67;;
11328;SDS011;5719;42.714;23.732;2023-08-08T01:04:40;1.70;;;1.60;;
11328;SDS011;5719;42.714;23.732;2023-08-08T01:07:09;3.20;;;2.05;;
11328;SDS011;5719;42.714;23.732;2023-08-08T01:09:45;2.67;;;1.75;;
11328;SDS011;5719;42.714;23.732;2023-08-08T01:12:18;3.35;;;2.05;;
11328;SDS011;5719;42.714;23.732;2023-08-08T01:14:46;5.65;;;2.10;;
11328;SDS011;5719;42.714;23.732;2023-08-08T01:17:14;2.80;;;2.10;;
11328;SDS011;5719;42.714;23.732;2023-08-08T01:19:42;2.20;;;2.10;;
11328;SDS011;5719;42.714;23.732;2023-08-08T01:22:13;5.30;;;2.30;;
11328;SDS011;5719;42.714;23.732;2023-08-08T01:24:50;2.53;;;2.20;;
11328;SDS011;5719;42.714;23.732;2023-08-08T01:27:18;1.75;;;1.65;;
11328;SDS011;5719;42.714;23.732;2023-08-08T01:29:45;7.28;;;2.30;;
11328;SDS011;5719;42.714;23.732;2023-08-08T01:32:12;2.80;;;1.90;;
11328;SDS011;5719;42.714;23.732;2023-08-08T01:34:39;2.05;;;1.90;;
11328;SDS011;5719;42.714;23.732;2023-08-08T01:37:07;3.22;;;2.10;;
11328;SDS011;5719;42.714;23.732;2023-08-08T01:39:40;2.42;;;1.92;;
11328;SDS011;5719;42.714;23.732;2023-08-08T01:42:10;2.00;;;1.88;;
11328;SDS011;5719;42.714;23.732;2023-08-08T01:44:38;2.88;;;2.30;;
11328;SDS011;5719;42.714;23.732;2023-08-08T01:47:07;2.25;;;1.77;;
11328;SDS011;5719;42.714;23.732;2023-08-08T01:49:35;3.92;;;1.98;;
11328;SDS011;5719;42.714;23.732;2023-08-08T01:52:02;6.93;;;1.90;;
11328;SDS011;5719;42.714;23.732;2023-08-08T01:54:30;4.07;;;1.70;;
11328;SDS011;5719;42.714;23.732;2023-08-08T01:56:57;5.07;;;1.92;;
11328;SDS011;5719;42.714;23.732;2023-08-08T01:59:25;2.08;;;1.70;;
11328;SDS011;5719;42.714;23.732;2023-08-08T02:01:52;1.80;;;1.70;;
11328;SDS011;5719;42.714;23.732;2023-08-08T02:04:19;2.38;;;1.70;;
11328;SDS011;5719;42.714;23.732;2023-08-08T02:06:47;3.85;;;1.73;;
11328;SDS011;5719;42.714;23.732;2023-08-08T02:09:13;1.40;;;1.30;;
11328;SDS011;5719;42.714;23.732;2023-08-08T02:11:40;1.60;;;1.33;;
11328;SDS011;5719;42.714;23.732;2023-08-08T02:14:07;1.95;;;1.70;;
11328;SDS011;5719;42.714;23.732;2023-08-08T02:16:36;2.33;;;1.77;;
11328;SDS011;5719;42.714;23.732;2023-08-08T02:19:04;1.65;;;1.33;;
11328;SDS011;5719;42.714;23.732;2023-08-08T02:21:31;1.60;;;1.50;;
11328;SDS011;5719;42.714;23.732;2023-08-08T02:23:58;1.80;;;1.67;;
11328;SDS011;5719;42.714;23.732;2023-08-08T02:26:25;1.65;;;1.40;;
11328;SDS011;5719;42.714;23.732;2023-08-08T02:28:52;1.50;;;1.40;;
11328;SDS011;5719;42.714;23.732;2023-08-08T02:31:19;1.88;;;1.40;;
11328;SDS011;5719;42.714;23.732;2023-08-08T02:33:48;1.73;;;1.63;;
11328;SDS011;5719;42.714;23.732;2023-08-08T02:36:16;2.45;;;1.38;;
11328;SDS011;5719;42.714;23.732;2023-08-08T02:38:43;3.15;;;1.30;;
11328;SDS011;5719;42.714;23.732;2023-08-08T02:41:10;1.50;;;1.40;;
11328;SDS011;5719;42.714;23.732;2023-08-08T02:43:37;2.83;;;1.70;;
11328;SDS011;5719;42.714;23.732;2023-08-08T02:46:04;2.17;;;1.85;;
11328;SDS011;5719;42.714;23.732;2023-08-08T02:48:31;5.72;;;2.50;;
11328;SDS011;5719;42.714;23.732;2023-08-08T02:50:59;2.08;;;1.98;;
11328;SDS011;5719;42.714;23.732;2023-08-08T02:53:26;3.83;;;2.35;;
11328;SDS011;5719;42.714;23.732;2023-08-08T02:55:53;3.97;;;3.05;;
11328;SDS011;5719;42.714;23.732;2023-08-08T02:58:19;5.35;;;2.42;;
11328;SDS011;5719;42.714;23.732;2023-08-08T03:00:46;3.22;;;2.30;;
11328;SDS011;5719;42.714;23.732;2023-08-08T03:03:13;4.00;;;2.42;;
11328;SDS011;5719;42.714;23.732;2023-08-08T03:05:40;2.72;;;2.42;;
11328;SDS011;5719;42.714;23.732;2023-08-08T03:08:08;6.20;;;2.70;;
11328;SDS011;5719;42.714;23.732;2023-08-08T03:10:35;5.13;;;2.53;;
11328;SDS011;5719;42.714;23.732;2023-08-08T03:13:02;3.38;;;2.40;;
11328;SDS011;5719;42.714;23.732;2023-08-08T03:15:29;6.80;;;2.88;;
11328;SDS011;5719;42.714;23.732;2023-08-08T03:17:56;3.03;;;2.60;;
11328;SDS011;5719;42.714;23.732;2023-08-08T03:20:23;3.75;;;2.70;;
11328;SDS011;5719;42.714;23.732;2023-08-08T03:22:50;6.55;;;2.63;;
11328;SDS011;5719;42.714;23.732;2023-08-08T03:25:18;6.63;;;3.05;;
11328;SDS011;5719;42.714;23.732;2023-08-08T03:27:45;3.78;;;2.53;;
11328;SDS011;5719;42.714;23.732;2023-08-08T03:30:12;2.97;;;2.30;;
11328;SDS011;5719;42.714;23.732;2023-08-08T03:32:40;2.63;;;2.40;;
11328;SDS011;5719;42.714;23.732;2023-08-08T03:35:07;4.80;;;2.80;;
11328;SDS011;5719;42.714;23.732;2023-08-08T03:37:35;3.72;;;2.78;;
11328;SDS011;5719;42.714;23.732;2023-08-08T03:40:02;4.70;;;2.90;;
11328;SDS011;5719;42.714;23.732;2023-08-08T03:42:31;7.90;;;2.95;;
11328;SDS011;5719;42.714;23.732;2023-08-08T03:44:58;2.67;;;2.47;;
11328;SDS011;5719;42.714;23.732;2023-08-08T03:47:25;6.25;;;2.83;;
11328;SDS011;5719;42.714;23.732;2023-08-08T03:49:55;2.58;;;2.38;;
11328;SDS011;5719;42.714;23.732;2023-08-08T03:52:22;4.75;;;2.47;;
11328;SDS011;5719;42.714;23.732;2023-08-08T03:54:49;3.10;;;2.80;;
11328;SDS011;5719;42.714;23.732;2023-08-08T03:57:16;8.05;;;3.28;;
11328;SDS011;5719;42.714;23.732;2023-08-08T03:59:45;3.22;;;2.60;;
11328;SDS011;5719;42.714;23.732;2023-08-08T04:02:12;3.88;;;2.90;;
11328;SDS011;5719;42.714;23.732;2023-08-08T04:04:39;5.93;;;3.13;;
11328;SDS011;5719;42.714;23.732;2023-08-08T04:07:06;5.22;;;3.20;;
11328;SDS011;5719;42.714;23.732;2023-08-08T04:09:32;5.63;;;3.28;;
11328;SDS011;5719;42.714;23.732;2023-08-08T04:11:59;6.13;;;3.58;;
11328;SDS011;5719;42.714;23.732;2023-08-08T04:14:26;4.35;;;3.38;;
11328;SDS011;5719;42.714;23.732;2023-08-08T04:16:55;7.57;;;3.72;;
11328;SDS011;5719;42.714;23.732;2023-08-08T04:19:22;4.10;;;3.70;;
11328;SDS011;5719;42.714;23.732;2023-08-08T04:21:49;9.05;;;3.60;;
11328;SDS011;5719;42.714;23.732;2023-08-08T04:24:16;3.97;;;3.53;;
11328;SDS011;5719;42.714;23.732;2023-08-08T04:26:43;7.75;;;3.50;;
11328;SDS011;5719;42.714;23.732;2023-08-08T04:29:10;4.50;;;4.10;;
11328;SDS011;5719;42.714;23.732;2023-08-08T04:31:37;6.43;;;3.97;;
11328;SDS011;5719;42.714;23.732;2023-08-08T04:34:05;4.25;;;3.85;;
11328;SDS011;5719;42.714;23.732;2023-08-08T04:36:32;4.07;;;3.83;;
11328;SDS011;5719;42.714;23.732;2023-08-08T04:38:59;7.00;;;4.03;;
11328;SDS011;5719;42.714;23.732;2023-08-08T04:41:26;5.15;;;3.78;;
11328;SDS011;5719;42.714;23.732;2023-08-08T04:43:53;5.57;;;4.20;;
11328;SDS011;5719;42.714;23.732;2023-08-08T04:46:19;5.18;;;3.95;;
11328;SDS011;5719;42.714;23.732;2023-08-08T04:48:46;7.88;;;4.28;;
11328;SDS011;5719;42.714;23.732;2023-08-08T04:51:15;7.95;;;5.30;;
11328;SDS011;5719;42.714;23.732;2023-08-08T04:53:42;5.53;;;4.88;;
11328;SDS011;5719;42.714;23.732;2023-08-08T04:56:08;4.75;;;4.13;;
11328;SDS011;5719;42.714;23.732;2023-08-08T04:58:35;3.70;;;3.40;;
11328;SDS011;5719;42.714;23.732;2023-08-08T05:01:02;5.03;;;3.95;;
11328;SDS011;5719;42.714;23.732;2023-08-08T05:03:29;7.03;;;3.90;;
11328;SDS011;5719;42.714;23.732;2023-08-08T05:05:56;7.57;;;3.60;;
11328;SDS011;5719;42.714;23.732;2023-08-08T05:08:25;4.63;;;4.22;;
11328;SDS011;5719;42.714;23.732;2023-08-08T05:10:53;4.25;;;3.70;;
11328;SDS011;5719;42.714;23.732;2023-08-08T05:13:20;4.32;;;3.80;;
11328;SDS011;5719;42.714;23.732;2023-08-08T05:15:46;5.70;;;3.35;;
11328;SDS011;5719;42.714;23.732;2023-08-08T05:18:13;3.47;;;3.17;;
11328;SDS011;5719;42.714;23.732;2023-08-08T05:20:40;4.45;;;3.13;;
11328;SDS011;5719;42.714;23.732;2023-08-08T05:23:07;5.80;;;3.70;;
11328;SDS011;5719;42.714;23.732;2023-08-08T05:25:36;6.80;;;3.20;;
11328;SDS011;5719;42.714;23.732;2023-08-08T05:28:03;3.22;;;2.75;;
11328;SDS011;5719;42.714;23.732;2023-08-08T05:30:30;5.30;;;2.97;;
11328;SDS011;5719;42.714;23.732;2023-08-08T05:32:57;3.90;;;2.97;;
11328;SDS011;5719;42.714;23.732;2023-08-08T05:35:24;9.02;;;3.58;;
11328;SDS011;5719;42.714;23.732;2023-08-08T05:37:51;6.80;;;4.20;;
11328;SDS011;5719;42.714;23.732;2023-08-08T05:40:18;8.80;;;4.68;;
11328;SDS011;5719;42.714;23.732;2023-08-08T05:42:46;12.02;;;4.32;;
11328;SDS011;5719;42.714;23.732;2023-08-08T05:45:13;5.25;;;4.70;;
11328;SDS011;5719;42.714;23.732;2023-08-08T05:47:40;8.40;;;5.38;;
11328;SDS011;5719;42.714;23.732;2023-08-08T05:50:07;5.07;;;4.57;;
11328;SDS011;5719;42.714;23.732;2023-08-08T05:52:34;5.18;;;4.65;;
11328;SDS011;5719;42.714;23.732;2023-08-08T05:55:01;4.57;;;4.22;;
11328;SDS011;5719;42.714;23.732;2023-08-08T05:57:28;5.55;;;4.50;;
11328;SDS011;5719;42.714;23.732;2023-08-08T05:59:56;5.47;;;4.70;;
11328;SDS011;5719;42.714;23.732;2023-08-08T06:02:23;6.53;;;3.80;;
11328;SDS011;5719;42.714;23.732;2023-08-08T06:04:50;6.80;;;3.90;;
11328;SDS011;5719;42.714;23.732;2023-08-08T06:07:18;4.25;;;3.60;;
11328;SDS011;5719;42.714;23.732;2023-08-08T06:09:45;3.50;;;3.30;;
11328;SDS011;5719;42.714;23.732;2023-08-08T06:12:11;3.97;;;3.35;;
11328;SDS011;5719;42.714;23.732;2023-08-08T06:14:39;2.80;;;2.67;;
11328;SDS011;5719;42.714;23.732;2023-08-08T06:17:07;3.28;;;2.70;;
11328;SDS011;5719;42.714;23.732;2023-08-08T06:19:34;3.88;;;2.58;;
11328;SDS011;5719;42.714;23.732;2023-08-08T06:22:01;3.92;;;3.63;;
11328;SDS011;5719;42.714;23.732;2023-08-08T06:24:28;2.42;;;2.30;;
11328;SDS011;5719;42.714;23.732;2023-08-08T06:26:55;2.15;;;1.83;;
11328;SDS011;5719;42.714;23.732;2023-08-08T06:29:22;2.65;;;2.10;;
11328;SDS011;5719;42.714;23.732;2023-08-08T06:31:49;3.83;;;1.60;;
11328;SDS011;5719;42.714;23.732;2023-08-08T06:34:18;1.70;;;1.58;;
11328;SDS011;5719;42.714;23.732;2023-08-08T06:36:44;3.90;;;1.88;;
11328;SDS011;5719;42.714;23.732;2023-08-08T06:39:12;2.53;;;1.73;;
11328;SDS011;5719;42.714;23.732;2023-08-08T06:41:40;8.15;;;4.63;;
11328;SDS011;5719;42.714;23.732;2023-08-08T06:44:07;7.35;;;4.30;;
11328;SDS011;5719;42.714;23.732;2023-08-08T06:46:34;4.60;;;2.70;;
11328;SDS011;5719;42.714;23.732;2023-08-08T06:49:01;2.17;;;1.95;;
11328;SDS011;5719;42.714;23.732;2023-08-08T06:51:30;2.05;;;1.65;;
11328;SDS011;5719;42.714;23.732;2023-08-08T06:53:56;2.00;;;1.52;;
11328;SDS011;5719;42.714;23.732;2023-08-08T06:56:23;3.28;;;1.20;;
11328;SDS011;5719;42.714;23.732;2023-08-08T06:58:52;1.50;;;0.90;;
11328;SDS011;5719;42.714;23.732;2023-08-08T07:01:19;1.95;;;0.80;;
11328;SDS011;5719;42.714;23.732;2023-08-08T07:03:46;1.13;;;0.70;;
11328;SDS011;5719;42.714;23.732;2023-08-08T07:06:14;1.85;;;0.60;;
11328;SDS011;5719;42.714;23.732;2023-08-08T07:08:45;3.67;;;0.80;;
11328;SDS011;5719;42.714;23.732;2023-08-08T07:11:12;1.95;;;0.65;;
11328;SDS011;5719;42.714;23.732;2023-08-08T07:13:39;0.88;;;0.68;;
11328;SDS011;5719;42.714;23.732;2023-08-08T07:16:06;3.25;;;0.70;;
11328;SDS011;5719;42.714;23.732;2023-08-08T07:18:33;0.60;;;0.60;;
11328;SDS011;5719;42.714;23.732;2023-08-08T07:20:59;0.60;;;0.40;;
11328;SDS011;5719;42.714;23.732;2023-08-08T07:23:26;2.63;;;0.75;;
11328;SDS011;5719;42.714;23.732;2023-08-08T07:25:55;2.08;;;0.50;;
11328;SDS011;5719;42.714;23.732;2023-08-08T07:28:23;2.75;;;0.68;;
11328;SDS011;5719;42.714;23.732;2023-08-08T07:30:50;2.72;;;0.70;;
11328;SDS011;5719;42.714;23.732;2023-08-08T07:33:17;3.10;;;0.70;;
11328;SDS011;5719;42.714;23.732;2023-08-08T07:35:44;0.90;;;0.50;;
11328;SDS011;5719;42.714;23.732;2023-08-08T07:38:12;2.05;;;0.50;;
11328;SDS011;5719;42.714;23.732;2023-08-08T07:40:38;0.55;;;0.55;;
11328;SDS011;5719;42.714;23.732;2023-08-08T07:43:08;0.60;;;0.60;;
11328;SDS011;5719;42.714;23.732;2023-08-08T07:45:34;0.50;;;0.50;;
11328;SDS011;5719;42.714;23.732;2023-08-08T07:48:02;1.00;;;0.50;;
11328;SDS011;5719;42.714;23.732;2023-08-08T07:50:30;1.15;;;0.40;;
11328;SDS011;5719;42.714;23.732;2023-08-08T07:52:57;0.98;;;0.60;;
11328;SDS011;5719;42.714;23.732;2023-08-08T07:55:24;1.85;;;0.75;;
11328;SDS011;5719;42.714;23.732;2023-08-08T07:57:51;2.75;;;0.90;;
11328;SDS011;5719;42.714;23.732;2023-08-08T08:00:19;1.15;;;0.95;;
11328;SDS011;5719;42.714;23.732;2023-08-08T08:02:47;1.77;;;0.82;;
11328;SDS011;5719;42.714;23.732;2023-08-08T08:05:13;2.35;;;0.80;;
11328;SDS011;5719;42.714;23.732;2023-08-08T08:07:40;1.45;;;0.93;;
11328;SDS011;5719;42.714;23.732;2023-08-08T08:10:08;1.20;;;1.10;;
11328;SDS011;5719;42.714;23.732;2023-08-08T08:12:39;1.20;;;1.20;;
11328;SDS011;5719;42.714;23.732;2023-08-08T08:15:08;2.75;;;1.20;;
11328;SDS011;5719;42.714;23.732;2023-08-08T08:17:37;4.82;;;1.30;;
11328;SDS011;5719;42.714;23.732;2023-08-08T08:20:04;1.63;;;1.35;;
11328;SDS011;5719;42.714;23.732;2023-08-08T08:22:36;1.70;;;1.60;;
11328;SDS011;5719;42.714;23.732;2023-08-08T08:25:03;1.60;;;1.50;;
11328;SDS011;5719;42.714;23.732;2023-08-08T08:27:32;1.40;;;1.30;;
11328;SDS011;5719;42.714;23.732;2023-08-08T08:29:59;2.95;;;1.50;;
11328;SDS011;5719;42.714;23.732;2023-08-08T08:32:26;1.50;;;1.40;;
11328;SDS011;5719;42.714;23.732;2023-08-08T08:34:55;3.95;;;1.30;;
11328;SDS011;5719;42.714;23.732;2023-08-08T08:37:22;1.60;;;1.30;;
11328;SDS011;5719;42.714;23.732;2023-08-08T08:39:48;1.42;;;1.20;;
11328;SDS011;5719;42.714;23.732;2023-08-08T08:42:15;0.80;;;0.80;;
11328;SDS011;5719;42.714;23.732;2023-08-08T08:44:43;1.15;;;1.05;;
11328;SDS011;5719;42.714;23.732;2023-08-08T08:47:12;4.53;;;0.95;;
11328;SDS011;5719;42.714;23.732;2023-08-08T08:49:40;2.85;;;1.20;;
11328;SDS011;5719;42.714;23.732;2023-08-08T08:52:10;2.05;;;1.17;;
11328;SDS011;5719;42.714;23.732;2023-08-08T08:54:38;1.30;;;1.17;;
11328;SDS011;5719;42.714;23.732;2023-08-08T08:57:05;1.25;;;1.25;;
11328;SDS011;5719;42.714;23.732;2023-08-08T08:59:32;3.45;;;1.40;;
11328;SDS011;5719;42.714;23.732;2023-08-08T09:01:59;1.33;;;1.20;;
11328;SDS011;5719;42.714;23.732;2023-08-08T09:04:27;1.20;;;1.10;;
11328;SDS011;5719;42.714;23.732;2023-08-08T09:06:55;0.90;;;0.90;;
11328;SDS011;5719;42.714;23.732;2023-08-08T09:09:23;1.77;;;1.00;;
11328;SDS011;5719;42.714;23.732;2023-08-08T09:11:52;1.08;;;0.90;;
11328;SDS011;5719;42.714;23.732;2023-08-08T09:14:20;1.13;;;1.13;;
11328;SDS011;5719;42.714;23.732;2023-08-08T09:16:48;1.20;;;1.10;;
11328;SDS011;5719;42.714;23.732;2023-08-08T09:19:17;1.00;;;1.00;;
11328;SDS011;5719;42.714;23.732;2023-08-08T09:21:44;4.10;;;1.20;;
11328;SDS011;5719;42.714;23.732;2023-08-08T09:24:11;1.88;;;1.10;;
11328;SDS011;5719;42.714;23.732;2023-08-08T09:26:40;3.33;;;1.00;;
11328;SDS011;5719;42.714;23.732;2023-08-08T09:29:07;1.02;;;1.00;;
11328;SDS011;5719;42.714;23.732;2023-08-08T09:31:35;2.10;;;0.90;;
11328;SDS011;5719;42.714;23.732;2023-08-08T09:34:02;0.75;;;0.75;;
11328;SDS011;5719;42.714;23.732;2023-08-08T09:36:31;3.58;;;1.00;;
11328;SDS011;5719;42.714;23.732;2023-08-08T09:39:00;1.55;;;0.85;;
11328;SDS011;5719;42.714;23.732;2023-08-08T09:41:27;3.72;;;1.10;;
11328;SDS011;5719;42.714;23.732;2023-08-08T09:43:56;2.15;;;1.48;;
11328;SDS011;5719;42.714;23.732;2023-08-08T09:46:25;1.10;;;1.00;;
11328;SDS011;5719;42.714;23.732;2023-08-08T09:48:52;1.60;;;1.10;;
11328;SDS011;5719;42.714;23.732;2023-08-08T09:51:20;2.55;;;0.80;;
11328;SDS011;5719;42.714;23.732;2023-08-08T09:53:48;2.92;;;0.70;;
11328;SDS011;5719;42.714;23.732;2023-08-08T09:56:15;0.40;;;0.40;;
11328;SDS011;5719;42.714;23.732;2023-08-08T09:58:44;3.10;;;0.70;;
11328;SDS011;5719;42.714;23.732;2023-08-08T10:01:14;2.05;;;0.60;;
11328;SDS011;5719;42.714;23.732;2023-08-08T10:03:41;9.10;;;0.52;;
11328;SDS011;5719;42.714;23.732;2023-08-08T10:06:09;1.17;;;0.40;;
11328;SDS011;5719;42.714;23.732;2023-08-08T10:08:36;0.40;;;0.40;;
11328;SDS011;5719;42.714;23.732;2023-08-08T10:11:03;1.85;;;0.43;;
11328;SDS011;5719;42.714;23.732;2023-08-08T10:13:34;0.70;;;0.70;;
11328;SDS011;5719;42.714;23.732;2023-08-08T10:16:03;1.75;;;0.50;;
11328;SDS011;5719;42.714;23.732;2023-08-08T10:18:35;0.70;;;0.70;;
11328;SDS011;5719;42.714;23.732;2023-08-08T10:21:03;2.55;;;0.98;;
11328;SDS011;5719;42.714;23.732;2023-08-08T10:23:35;2.90;;;1.13;;
11328;SDS011;5719;42.714;23.732;2023-08-08T10:26:02;0.82;;;0.82;;
11328;SDS011;5719;42.714;23.732;2023-08-08T10:28:31;1.02;;;0.95;;
11328;SDS011;5719;42.714;23.732;2023-08-08T10:30:59;3.08;;;0.90;;
11328;SDS011;5719;42.714;23.732;2023-08-08T10:33:28;1.00;;;1.00;;
11328;SDS011;5719;42.714;23.732;2023-08-08T10:36:08;1.35;;;1.05;;
11328;SDS011;5719;42.714;23.732;2023-08-08T10:38:39;1.55;;;1.10;;
11328;SDS011;5719;42.714;23.732;2023-08-08T10:41:11;4.97;;;1.20;;
11328;SDS011;5719;42.714;23.732;2023-08-08T10:43:46;5.35;;;1.20;;
11328;SDS011;5719;42.714;23.732;2023-08-08T10:46:22;0.80;;;0.80;;
11328;SDS011;5719;42.714;23.732;2023-08-08T10:48:52;1.35;;;1.08;;
11328;SDS011;5719;42.714;23.732;2023-08-08T10:51:19;0.90;;;0.90;;
11328;SDS011;5719;42.714;23.732;2023-08-08T10:53:47;2.88;;;1.10;;
11328;SDS011;5719;42.714;23.732;2023-08-08T10:56:18;1.30;;;1.20;;
11328;SDS011;5719;42.714;23.732;2023-08-08T10:58:47;2.00;;;1.30;;
11328;SDS011;5719;42.714;23.732;2023-08-08T11:01:15;5.78;;;1.10;;
11328;SDS011;5719;42.714;23.732;2023-08-08T11:03:42;2.70;;;1.27;;
11328;SDS011;5719;42.714;23.732;2023-08-08T11:06:11;0.90;;;0.88;;
11328;SDS011;5719;42.714;23.732;2023-08-08T11:08:38;2.45;;;1.02;;
11328;SDS011;5719;42.714;23.732;2023-08-08T11:11:05;1.75;;;1.17;;
11328;SDS011;5719;42.714;23.732;2023-08-08T11:13:33;1.00;;;1.00;;
11328;SDS011;5719;42.714;23.732;2023-08-08T11:16:00;1.98;;;0.88;;
11328;SDS011;5719;42.714;23.732;2023-08-08T11:18:27;1.75;;;0.95;;
11328;SDS011;5719;42.714;23.732;2023-08-08T11:20:55;3.70;;;1.20;;
11328;SDS011;5719;42.714;23.732;2023-08-08T11:23:23;0.93;;;0.90;;
11328;SDS011;5719;42.714;23.732;2023-08-08T11:25:50;1.60;;;0.90;;
11328;SDS011;5719;42.714;23.732;2023-08-08T11:28:18;1.33;;;0.77;;
11328;SDS011;5719;42.714;23.732;2023-08-08T11:30:45;0.65;;;0.65;;
11328;SDS011;5719;42.714;23.732;2023-08-08T11:33:13;2.15;;;0.80;;
11328;SDS011;5719;42.714;23.732;2023-08-08T11:35:44;2.78;;;0.90;;
11328;SDS011;5719;42.714;23.732;2023-08-08T11:38:14;1.65;;;0.65;;
11328;SDS011;5719;42.714;23.732;2023-08-08T11:40:43;2.45;;;1.05;;
11328;SDS011;5719;42.714;23.732;2023-08-08T11:43:10;1.10;;;1.00;;
11328;SDS011;5719;42.714;23.732;2023-08-08T11:45:39;3.90;;;1.08;;
11328;SDS011;5719;42.714;23.732;2023-08-08T11:48:07;1.08;;;0.90;;
11328;SDS011;5719;42.714;23.732;2023-08-08T11:50:36;0.88;;;0.88;;
11328;SDS011;5719;42.714;23.732;2023-08-08T11:53:05;1.98;;;1.00;;
11328;SDS011;5719;42.714;23.732;2023-08-08T11:55:32;0.80;;;0.80;;
11328;SDS011;5719;42.714;23.732;2023-08-08T11:58:04;1.02;;;0.70;;
11328;SDS011;5719;42.714;23.732;2023-08-08T12:00:31;0.80;;;0.80;;
11328;SDS011;5719;42.714;23.732;2023-08-08T12:03:00;0.75;;;0.75;;
11328;SDS011;5719;42.714;23.732;2023-08-08T12:05:29;1.63;;;1.02;;
11328;SDS011;5719;42.714;23.732;2023-08-08T12:07:58;3.05;;;0.93;;
11328;SDS011;5719;42.714;23.732;2023-08-08T12:10:25;2.53;;;0.80;;
11328;SDS011;5719;42.714;23.732;2023-08-08T12:12:54;2.58;;;0.70;;
11328;SDS011;5719;42.714;23.732;2023-08-08T12:15:29;1.58;;;0.70;;
11328;SDS011;5719;42.714;23.732;2023-08-08T12:17:57;0.70;;;0.70;;
11328;SDS011;5719;42.714;23.732;2023-08-08T12:20:26;0.90;;;0.90;;
11328;SDS011;5719;42.714;23.732;2023-08-08T12:22:54;1.00;;;1.00;;
11328;SDS011;5719;42.714;23.732;2023-08-08T12:25:22;2.42;;;0.95;;
11328;SDS011;5719;42.714;23.732;2023-08-08T12:27:49;4.80;;;1.00;;
11328;SDS011;5719;42.714;23.732;2023-08-08T12:30:17;0.80;;;0.80;;
11328;SDS011;5719;42.714;23.732;2023-08-08T12:32:46;1.75;;;0.70;;
11328;SDS011;5719;42.714;23.732;2023-08-08T12:35:14;0.60;;;0.60;;
11328;SDS011;5719;42.714;23.732;2023-08-08T12:37:42;0.85;;;0.70;;
11328;SDS011;5719;42.714;23.732;2023-08-08T12:40:10;2.47;;;0.80;;
11328;SDS011;5719;42.714;23.732;2023-08-08T12:42:38;0.90;;;0.88;;
11328;SDS011;5719;42.714;23.732;2023-08-08T12:45:05;1.02;;;0.90;;
11328;SDS011;5719;42.714;23.732;2023-08-08T12:47:33;1.05;;;1.00;;
11328;SDS011;5719;42.714;23.732;2023-08-08T12:50:03;1.75;;;0.70;;
11328;SDS011;5719;42.714;23.732;2023-08-08T12:52:30;1.88;;;0.70;;
11328;SDS011;5719;42.714;23.732;2023-08-08T12:54:57;0.80;;;0.80;;
11328;SDS011;5719;42.714;23.732;2023-08-08T12:57:24;1.05;;;0.60;;
11328;SDS011;5719;42.714;23.732;2023-08-08T12:59:52;1.17;;;0.60;;
11328;SDS011;5719;42.714;23.732;2023-08-08T13:02:19;0.55;;;0.55;;
11328;SDS011;5719;42.714;23.732;2023-08-08T13:04:46;1.70;;;0.63;;
11328;SDS011;5719;42.714;23.732;2023-08-08T13:07:14;1.55;;;0.68;;
11328;SDS011;5719;42.714;23.732;2023-08-08T13:09:42;0.70;;;0.70;;
11328;SDS011;5719;42.714;23.732;2023-08-08T13:12:11;0.80;;;0.77;;
11328;SDS011;5719;42.714;23.732;2023-08-08T13:14:38;1.05;;;0.60;;
11328;SDS011;5719;42.714;23.732;2023-08-08T13:17:05;2.20;;;0.63;;
11328;SDS011;5719;42.714;23.732;2023-08-08T13:19:32;4.22;;;0.95;;
11328;SDS011;5719;42.714;23.732;2023-08-08T13:21:59;1.00;;;0.80;;
11328;SDS011;5719;42.714;23.732;2023-08-08T13:24:28;0.50;;;0.50;;
11328;SDS011;5719;42.714;23.732;2023-08-08T13:26:55;2.90;;;0.60;;
11328;SDS011;5719;42.714;23.732;2023-08-08T13:29:23;5.10;;;0.47;;
11328;SDS011;5719;42.714;23.732;2023-08-08T13:31:50;0.50;;;0.50;;
11328;SDS011;5719;42.714;23.732;2023-08-08T13:34:17;2.10;;;0.50;;
11328;SDS011;5719;42.714;23.732;2023-08-08T13:36:44;1.95;;;0.40;;
11328;SDS011;5719;42.714;23.732;2023-08-08T13:39:11;0.63;;;0.47;;
11328;SDS011;5719;42.714;23.732;2023-08-08T13:41:42;0.43;;;0.43;;
11328;SDS011;5719;42.714;23.732;2023-08-08T13:44:09;1.00;;;0.40;;
11328;SDS011;5719;42.714;23.732;2023-08-08T13:46:36;0.30;;;0.30;;
11328;SDS011;5719;42.714;23.732;2023-08-08T13:49:04;0.57;;;0.57;;
11328;SDS011;5719;42.714;23.732;2023-08-08T13:51:31;0.40;;;0.30;;
11328;SDS011;5719;42.714;23.732;2023-08-08T13:53:58;0.40;;;0.40;;
11328;SDS011;5719;42.714;23.732;2023-08-08T13:56:25;1.65;;;0.50;;
11328;SDS011;5719;42.714;23.732;2023-08-08T13:58:54;0.47;;;0.47;;
11328;SDS011;5719;42.714;23.732;2023-08-08T14:01:21;1.02;;;0.50;;
11328;SDS011;5719;42.714;23.732;2023-08-08T14:03:49;2.08;;;0.40;;
11328;SDS011;5719;42.714;23.732;2023-08-08T14:06:16;0.40;;;0.40;;
11328;SDS011;5719;42.714;23.732;2023-08-08T14:08:43;0.50;;;0.45;;
11328;SDS011;5719;42.714;23.732;2023-08-08T14:11:10;0.55;;;0.55;;
11328;SDS011;5719;42.714;23.732;2023-08-08T14:13:37;0.50;;;0.50;;
11328;SDS011;5719;42.714;23.732;2023-08-08T14:16:08;0.70;;;0.70;;
11328;SDS011;5719;42.714;23.732;2023-08-08T14:18:35;1.75;;;0.80;;
11328;SDS011;5719;42.714;23.732;2023-08-08T14:21:02;0.75;;;0.75;;
11328;SDS011;5719;42.714;23.732;2023-08-08T14:23:29;0.63;;;0.63;;
11328;SDS011;5719;42.714;23.732;2023-08-08T14:25:58;1.15;;;0.60;;
11328;SDS011;5719;42.714;23.732;2023-08-08T14:28:25;1.52;;;0.60;;
11328;SDS011;5719;42.714;23.732;2023-08-08T14:30:52;0.57;;;0.57;;
11328;SDS011;5719;42.714;23.732;2023-08-08T14:33:20;1.50;;;0.70;;
11328;SDS011;5719;42.714;23.732;2023-08-08T14:35:47;0.85;;;0.60;;
11328;SDS011;5719;42.714;23.732;2023-08-08T14:38:16;0.73;;;0.73;;
11328;SDS011;5719;42.714;23.732;2023-08-08T14:40:43;0.60;;;0.60;;
11328;SDS011;5719;42.714;23.732;2023-08-08T14:43:10;0.65;;;0.65;;
11328;SDS011;5719;42.714;23.732;2023-08-08T14:45:37;0.98;;;0.50;;
11328;SDS011;5719;42.714;23.732;2023-08-08T14:48:04;3.45;;;0.40;;
11328;SDS011;5719;42.714;23.732;2023-08-08T14:50:33;0.60;;;0.60;;